Chariton, IA

3:25 AM CDT on July 07, 2015 (GMT -0500)
MesoWest | | Change Station
CLOSE
Current Station
Personal Weather Station
Location: Chariton, IA
Elevation: 1018 ft
Nearby Weather Stations

Elev 1018 ft 41.01 °N, 93.30 °W | Updated 1 hour ago

Overcast
Overcast
63.0 °F
Feels Like 63.0 °F
N
0.0
Wind Variable Wind from North
Gusts 0.0 mph

Today
High -- | Low -- °F
--% Chance of Precip.
Yesterday
High -- | Low -- °F
Precip. -- in
5:48 AM 8:47 PM
Waning Gibbous, 67% visible
Pressure 30.00 in
Visibility 3.0 miles
Clouds Mostly Cloudy 2400 ft
Mostly Cloudy 3200 ft
Overcast 8500 ft
Dew Point Not available.
Humidity Not available.
Rainfall in
Snow Depth Not available.
UV 0 out of 12
Pollen 1.30 out of 12
Air Quality Not available.
Flu Activity Not available.
METAR KCNC 070815Z AUTO 34008KT 3SM BR BKN024 BKN032 OVC085 17/15 A3000 RMK AO2

More Conditions Fewer Conditions

Pressure 30.00 in
Visibility 3.0 miles
Clouds Mostly Cloudy 2400 ft
Mostly Cloudy 3200 ft
Overcast 8500 ft
Dew Point Not available.
Humidity Not available.
Rainfall in
Snow Depth Not available.
UV 0 out of 12
Pollen 1.30 out of 12
Air Quality Not available.
Flu Activity Not available.
METAR KCNC 070815Z AUTO 34008KT 3SM BR BKN024 BKN032 OVC085 17/15 A3000 RMK AO2

More Conditions Fewer Conditions

10-Day Weather Forecast

×

Almanac

Astronomy

Jul. 07, 2015 Rise Set
Actual Time
Civil Twilight
Nautical Twilight
Astronomical Twilight
Moon
Length of Visible Light
Length of Day
Tomorrow will be .
, % of the Moon is Illuminated

Today's Extremes

State Highs State Lows

Community

WunderPhotos

Upload Photos

1,835,758 photos uploaded!

WunderBlogs® & News

Nearby

Air Quality

  Air Quality AQ Index Pollutant
Not available.

Snow Depth

Station Depth Elevation

Earthquake Activity

City Distance Mag. Time & Date
Minimum magnitude displayed is 2.5.

Coastal Water Temperatures

Place Temperature

Stations

Nearby Weather Stations

Station Location Temp. Windchill Dew Point Humidity Wind Precip. Elev Updated Type